Time;durP1;ratioP1;P1;durP2;ratioP2;P2;SDS_P1;SDS_P2;PMS_P1;PMS_P2;Temp;Humidity;BMP_temperature;BMP_pressure;BME280_temperature;BME280_humidity;BME280_pressure;Samples;Min_cycle;Max_cycle;Signal;HPM_P1;HPM_P2
2023/06/24 00:06:18;;;;;;;13.95;9.77;;;;;;;26.72;100.00;100069.63;31589684;28;20047;-75
2023/06/24 00:21:20;;;;;;;12.48;7.75;;;;;;;27.05;100.00;100073.91;31573290;28;20418;-77
2023/06/24 00:36:26;;;;;;;13.07;7.15;;;;;;;27.03;100.00;100056.22;31586206;28;20097;-77
2023/06/24 00:51:31;;;;;;;13.60;7.05;;;;;;;27.10;100.00;100063.97;31605168;28;20093;-76
2023/06/24 01:06:36;;;;;;;12.90;7.60;;;;;;;27.37;100.00;100087.03;31596785;28;20044;-78
2023/06/24 01:22:02;;;;;;;12.73;7.63;;;;;;;27.40;100.00;100058.09;31600961;28;20056;-78
2023/06/24 01:37:21;;;;;;;12.63;8.18;;;;;;;27.32;100.00;100069.13;31585269;28;20052;-77
2023/06/24 01:52:29;;;;;;;13.50;8.13;;;;;;;27.01;100.00;100056.75;31584399;28;20088;-78
2023/06/24 02:07:34;;;;;;;11.95;7.65;;;;;;;27.03;100.00;100054.19;31589175;28;20051;-76
2023/06/24 02:22:41;;;;;;;11.20;6.85;;;;;;;26.95;100.00;100033.81;31595323;28;20047;-75
2023/06/24 02:37:45;;;;;;;11.27;8.05;;;;;;;26.90;100.00;100031.13;31612295;28;20472;-75
2023/06/24 02:52:48;;;;;;;21.33;10.77;;;;;;;26.94;100.00;99995.34;31588854;28;20079;-77
2023/06/24 03:07:53;;;;;;;11.80;7.45;;;;;;;27.57;100.00;100002.00;31604074;28;20292;-77
2023/06/24 03:22:56;;;;;;;7.93;5.23;;;;;;;28.48;100.00;100056.06;31579710;28;20052;-76
2023/06/24 03:38:04;;;;;;;6.82;4.93;;;;;;;29.26;88.92;100086.88;31589430;28;20627;-77
2023/06/24 03:53:07;;;;;;;8.43;4.93;;;;;;;29.55;84.32;100079.25;31586344;28;20135;-76
2023/06/24 04:08:10;;;;;;;11.13;4.95;;;;;;;29.75;83.83;100084.03;31591107;28;20084;-77
2023/06/24 04:23:15;;;;;;;8.85;4.72;;;;;;;30.36;79.65;100087.03;31593603;28;20058;-77
2023/06/24 04:38:18;;;;;;;6.88;4.72;;;;;;;30.51;78.50;100098.25;31618563;28;20048;-78
2023/06/24 04:53:23;;;;;;;8.73;5.07;;;;;;;31.03;75.10;100096.09;31596528;28;20084;-77
2023/06/24 05:08:25;;;;;;;9.07;5.18;;;;;;;31.48;71.14;100112.13;31610723;28;20052;-76
2023/06/24 05:23:29;;;;;;;7.15;5.22;;;;;;;31.80;69.68;100103.09;31627258;28;20048;-77
2023/06/24 05:38:32;;;;;;;9.75;4.97;;;;;;;32.33;67.67;100102.13;31609560;28;20135;-77
2023/06/24 05:53:34;;;;;;;5.40;4.22;;;;;;;33.10;64.09;100091.81;31610366;28;20409;-79
2023/06/24 06:08:37;;;;;;;7.93;4.47;;;;;;;33.38;62.22;100088.56;31590821;28;20047;-80
2023/06/24 06:23:40;;;;;;;8.10;4.53;;;;;;;33.25;61.75;100091.69;31570027;28;20075;-79
2023/06/24 06:38:42;;;;;;;16.83;7.72;;;;;;;33.43;62.12;100084.75;31590590;28;20071;-79
2023/06/24 06:53:44;;;;;;;6.60;4.38;;;;;;;33.75;62.57;100069.03;31612139;28;20052;-80
2023/06/24 07:08:46;;;;;;;11.02;7.75;;;;;;;34.70;60.33;100061.69;31584833;28;20078;-75
2023/06/24 07:23:48;;;;;;;6.88;4.35;;;;;;;34.51;58.78;100063.09;31575617;28;20044;-76
2023/06/24 07:38:50;;;;;;;8.48;4.75;;;;;;;34.84;59.69;100049.44;31583482;28;20036;-75
2023/06/24 07:53:52;;;;;;;8.23;4.90;;;;;;;35.51;55.02;100040.31;31577548;28;20067;-75
2023/06/24 08:08:54;;;;;;;7.13;4.70;;;;;;;36.55;53.85;100056.88;31603397;28;20052;-78
2023/06/24 08:23:57;;;;;;;7.00;4.80;;;;;;;38.18;47.73;100051.31;31600759;28;20076;-75
2023/06/24 08:38:59;;;;;;;9.15;5.28;;;;;;;37.42;50.35;100059.19;31597122;28;20047;-76
2023/06/24 08:54:01;;;;;;;7.30;4.90;;;;;;;38.35;47.44;100052.31;31584945;28;20508;-77
2023/06/24 09:09:04;;;;;;;7.65;4.78;;;;;;;39.13;43.99;100041.41;31580421;28;20056;-75
2023/06/24 09:40:36;;;;;;;13.60;5.65;;;;;;;39.88;43.35;100032.19;32004110;22;20138;-84
2023/06/24 09:55:43;;;;;;;11.80;6.57;;;;;;;39.49;44.80;100012.25;31461725;28;20079;-78
2023/06/24 10:10:52;;;;;;;9.40;6.37;;;;;;;40.22;44.19;100012.66;31461837;28;20087;-78
2023/06/24 10:25:54;;;;;;;11.05;4.93;;;;;;;40.64;41.55;99994.22;31445972;28;20048;-75
2023/06/24 10:41:14;;;;;;;10.60;4.95;;;;;;;40.83;40.51;99971.06;31464048;28;20076;-79
2023/06/24 10:56:16;;;;;;;7.35;5.05;;;;;;;39.29;40.39;99962.81;31468532;28;20059;-76
2023/06/24 11:11:22;;;;;;;9.35;6.22;;;;;;;38.26;40.53;99948.31;31456030;28;20084;-78
2023/06/24 11:26:38;;;;;;;9.55;5.97;;;;;;;37.16;42.52;99944.25;31466953;28;20067;-76
2023/06/24 11:41:40;;;;;;;7.00;5.43;;;;;;;37.11;42.50;99917.03;31474712;28;20057;-81
2023/06/24 11:56:52;;;;;;;9.00;5.65;;;;;;;37.00;42.76;99903.59;31517258;28;20497;-81
2023/06/24 12:11:56;;;;;;;9.98;4.28;;;;;;;36.82;42.27;99900.34;31490748;28;20083;-80
2023/06/24 12:26:58;;;;;;;8.75;5.88;;;;;;;36.75;43.31;99893.53;31479413;28;20048;-77
2023/06/24 12:42:00;;;;;;;8.65;4.68;;;;;;;37.10;42.00;99873.84;31436844;28;20108;-81
2023/06/24 12:57:02;;;;;;;8.15;7.15;;;;;;;37.41;41.34;99870.88;31487103;28;20390;-79
2023/06/24 13:12:15;;;;;;;7.25;4.63;;;;;;;37.48;41.14;99874.81;31473280;28;20083;-80
2023/06/24 13:27:17;;;;;;;10.93;5.00;;;;;;;35.64;43.20;99905.69;31467648;28;20052;-80
2023/06/24 13:42:19;;;;;;;11.15;5.53;;;;;;;36.06;45.09;99859.91;31473514;28;20080;-80
2023/06/24 13:57:21;;;;;;;8.35;5.18;;;;;;;36.29;45.10;99865.72;31462462;28;20049;-81
2023/06/24 14:12:24;;;;;;;7.05;5.60;;;;;;;35.19;47.56;99863.03;31501758;28;20062;-82
2023/06/24 14:27:26;;;;;;;9.18;4.38;;;;;;;34.46;48.11;99880.22;31465664;28;20056;-81
2023/06/24 14:42:31;;;;;;;8.18;4.57;;;;;;;33.95;56.06;99878.47;31491204;28;20056;-79
2023/06/24 14:57:34;;;;;;;15.10;6.75;;;;;;;33.93;56.87;99864.97;31499983;28;20135;-78
2023/06/24 15:12:37;;;;;;;58.80;33.63;;;;;;;33.77;62.28;99850.38;31484460;28;20051;-78
2023/06/24 15:27:39;;;;;;;10.48;5.18;;;;;;;33.64;66.36;99831.06;31478218;28;20468;-77
2023/06/24 15:42:41;;;;;;;10.07;5.07;;;;;;;33.60;65.87;99838.44;31469460;28;20065;-77
2023/06/24 15:57:43;;;;;;;11.32;5.25;;;;;;;33.80;63.98;99851.28;31482821;28;20114;-79
2023/06/24 16:12:46;;;;;;;10.90;6.32;;;;;;;33.68;65.38;99872.84;31466192;28;20045;-81
2023/06/24 16:27:48;;;;;;;5.97;4.60;;;;;;;33.53;63.90;99880.19;31540498;28;20048;-78
2023/06/24 16:42:50;;;;;;;10.27;5.22;;;;;;;33.35;64.54;99859.03;31538608;28;20056;-80
2023/06/24 16:57:52;;;;;;;9.43;6.20;;;;;;;33.09;68.28;99887.84;31502913;28;20052;-79
2023/06/24 17:13:15;;;;;;;10.15;4.93;;;;;;;32.65;68.32;99901.81;31488686;28;20096;-80
2023/06/24 17:28:17;;;;;;;11.32;5.85;;;;;;;32.11;69.90;99997.78;31502911;28;20460;-78
2023/06/24 17:43:19;;;;;;;9.27;5.13;;;;;;;31.49;77.70;99954.47;31494552;28;20060;-77
2023/06/24 17:58:21;;;;;;;22.80;9.23;;;;;;;30.84;97.33;99936.75;31508073;28;20064;-78
2023/06/24 18:13:23;;;;;;;8.27;5.22;;;;;;;30.24;100.00;99889.91;31518882;28;20048;-77
2023/06/24 18:28:26;;;;;;;10.90;4.40;;;;;;;29.66;100.00;99877.56;31469954;28;20053;-76
2023/06/24 18:43:31;;;;;;;6.20;4.07;;;;;;;29.56;100.00;99901.75;31492400;28;20053;-78
2023/06/24 18:58:33;;;;;;;32.60;9.48;;;;;;;29.06;100.00;99795.00;31489750;28;20131;-81
2023/06/24 19:13:38;;;;;;;11.52;5.53;;;;;;;28.21;100.00;99630.47;31507180;28;20053;-79
2023/06/24 19:28:40;;;;;;;7.70;5.10;;;;;;;28.06;100.00;99609.56;31513381;28;20052;-79
2023/06/24 19:43:47;;;;;;;7.57;5.20;;;;;;;27.78;100.00;99596.44;31390850;28;20524;-78
2023/06/24 19:59:09;;;;;;;12.45;6.38;;;;;;;27.80;100.00;99648.88;31467093;28;20048;-78
2023/06/24 20:14:11;;;;;;;13.38;5.82;;;;;;;27.28;100.00;99613.72;31480115;28;20045;-77
2023/06/24 20:29:13;;;;;;;8.93;5.23;;;;;;;27.11;100.00;99575.16;31495274;28;20390;-78
2023/06/24 20:44:15;;;;;;;17.53;7.10;;;;;;;27.04;100.00;99547.97;31485937;28;20063;-76
2023/06/24 20:59:20;;;;;;;12.02;7.45;;;;;;;27.36;100.00;99550.44;31471280;28;20052;-77
2023/06/24 21:14:22;;;;;;;13.45;7.82;;;;;;;26.94;100.00;99507.94;31480087;28;20114;-76
2023/06/24 21:29:24;;;;;;;15.23;7.97;;;;;;;26.80;100.00;99493.38;31464480;28;20055;-77
2023/06/24 21:44:26;;;;;;;11.18;7.65;;;;;;;26.74;100.00;99499.09;31498724;28;20063;-77
2023/06/24 21:59:28;;;;;;;11.60;6.70;;;;;;;26.44;100.00;99426.50;31491451;28;20044;-78
2023/06/24 22:14:30;;;;;;;8.93;6.15;;;;;;;26.61;100.00;99429.59;31470661;28;20056;-76
2023/06/24 22:29:32;;;;;;;10.40;6.87;;;;;;;26.70;100.00;99431.88;31478281;28;20048;-77
2023/06/24 22:44:34;;;;;;;12.03;6.43;;;;;;;26.61;100.00;99412.13;31532912;28;20060;-78
2023/06/24 22:59:36;;;;;;;13.52;6.95;;;;;;;26.52;100.00;99382.00;31495597;28;20075;-77
2023/06/24 23:14:40;;;;;;;12.32;6.60;;;;;;;26.51;100.00;99381.25;31513590;28;20060;-76
2023/06/24 23:29:48;;;;;;;12.52;7.45;;;;;;;26.60;100.00;99339.03;31483633;28;20048;-76
2023/06/24 23:44:51;;;;;;;15.45;9.90;;;;;;;26.53;100.00;99403.72;31492106;28;20072;-78
2023/06/24 23:59:53;;;;;;;23.63;12.87;;;;;;;26.62;100.00;99464.47;31479255;28;20405;-77
